sensor_id;sensor_type;location;lat;lon;timestamp;P1;durP1;ratioP1;P2;durP2;ratioP2
19879;SDS011;10102;50.828;4.416;2022-12-29T00:01:45;2.97;;;1.60;;
19879;SDS011;10102;50.828;4.416;2022-12-29T00:04:11;3.25;;;1.48;;
19879;SDS011;10102;50.828;4.416;2022-12-29T00:06:38;2.17;;;1.92;;
19879;SDS011;10102;50.828;4.416;2022-12-29T00:09:04;3.15;;;1.75;;
19879;SDS011;10102;50.828;4.416;2022-12-29T00:11:30;1.65;;;1.13;;
19879;SDS011;10102;50.828;4.416;2022-12-29T00:13:56;7.45;;;2.33;;
19879;SDS011;10102;50.828;4.416;2022-12-29T00:16:44;3.83;;;1.80;;
19879;SDS011;10102;50.828;4.416;2022-12-29T00:19:11;1.85;;;1.65;;
19879;SDS011;10102;50.828;4.416;2022-12-29T00:21:55;1.60;;;1.50;;
19879;SDS011;10102;50.828;4.416;2022-12-29T00:24:40;6.13;;;1.58;;
19879;SDS011;10102;50.828;4.416;2022-12-29T00:27:24;3.00;;;1.10;;
19879;SDS011;10102;50.828;4.416;2022-12-29T00:30:10;4.00;;;1.23;;
19879;SDS011;10102;50.828;4.416;2022-12-29T00:32:56;5.97;;;1.27;;
19879;SDS011;10102;50.828;4.416;2022-12-29T00:36:15;1.40;;;1.08;;
19879;SDS011;10102;50.828;4.416;2022-12-29T00:38:37;2.63;;;1.30;;
19879;SDS011;10102;50.828;4.416;2022-12-29T00:41:26;4.68;;;1.42;;
19879;SDS011;10102;50.828;4.416;2022-12-29T00:44:11;3.13;;;1.40;;
19879;SDS011;10102;50.828;4.416;2022-12-29T00:46:41;3.50;;;1.23;;
19879;SDS011;10102;50.828;4.416;2022-12-29T00:49:09;1.35;;;1.10;;
19879;SDS011;10102;50.828;4.416;2022-12-29T00:52:00;1.88;;;1.00;;
19879;SDS011;10102;50.828;4.416;2022-12-29T00:54:32;4.13;;;1.30;;
19879;SDS011;10102;50.828;4.416;2022-12-29T00:56:59;3.88;;;1.27;;
19879;SDS011;10102;50.828;4.416;2022-12-29T00:59:25;3.60;;;1.23;;
19879;SDS011;10102;50.828;4.416;2022-12-29T01:01:51;5.38;;;1.65;;
19879;SDS011;10102;50.828;4.416;2022-12-29T01:04:17;2.15;;;1.08;;
19879;SDS011;10102;50.828;4.416;2022-12-29T01:06:44;2.85;;;1.10;;
19879;SDS011;10102;50.828;4.416;2022-12-29T01:09:09;3.55;;;1.10;;
19879;SDS011;10102;50.828;4.416;2022-12-29T01:11:54;2.05;;;0.90;;
19879;SDS011;10102;50.828;4.416;2022-12-29T01:14:20;5.45;;;1.33;;
19879;SDS011;10102;50.828;4.416;2022-12-29T01:16:46;2.15;;;1.10;;
19879;SDS011;10102;50.828;4.416;2022-12-29T01:19:13;3.53;;;1.60;;
19879;SDS011;10102;50.828;4.416;2022-12-29T01:21:39;3.03;;;1.20;;
19879;SDS011;10102;50.828;4.416;2022-12-29T01:24:05;4.47;;;1.45;;
19879;SDS011;10102;50.828;4.416;2022-12-29T01:26:31;7.82;;;1.63;;
19879;SDS011;10102;50.828;4.416;2022-12-29T01:28:57;6.70;;;1.70;;
19879;SDS011;10102;50.828;4.416;2022-12-29T01:31:22;3.47;;;1.48;;
19879;SDS011;10102;50.828;4.416;2022-12-29T01:33:48;4.20;;;1.58;;
19879;SDS011;10102;50.828;4.416;2022-12-29T01:36:15;2.58;;;1.67;;
19879;SDS011;10102;50.828;4.416;2022-12-29T01:38:42;4.80;;;1.67;;
19879;SDS011;10102;50.828;4.416;2022-12-29T01:41:09;5.82;;;1.85;;
19879;SDS011;10102;50.828;4.416;2022-12-29T01:43:58;1.92;;;1.33;;
19879;SDS011;10102;50.828;4.416;2022-12-29T01:49:16;3.25;;;1.52;;
19879;SDS011;10102;50.828;4.416;2022-12-29T01:54:38;2.55;;;2.35;;
19879;SDS011;10102;50.828;4.416;2022-12-29T01:57:07;2.95;;;1.80;;
19879;SDS011;10102;50.828;4.416;2022-12-29T01:59:37;2.55;;;1.58;;
19879;SDS011;10102;50.828;4.416;2022-12-29T02:02:25;4.40;;;1.50;;
19879;SDS011;10102;50.828;4.416;2022-12-29T02:04:52;3.53;;;1.70;;
19879;SDS011;10102;50.828;4.416;2022-12-29T02:07:19;2.05;;;1.38;;
19879;SDS011;10102;50.828;4.416;2022-12-29T02:09:47;5.47;;;1.27;;
19879;SDS011;10102;50.828;4.416;2022-12-29T02:12:15;3.85;;;0.90;;
19879;SDS011;10102;50.828;4.416;2022-12-29T02:14:43;2.00;;;0.90;;
19879;SDS011;10102;50.828;4.416;2022-12-29T02:36:12;9.48;;;1.27;;
19879;SDS011;10102;50.828;4.416;2022-12-29T02:47:14;7.00;;;0.90;;
19879;SDS011;10102;50.828;4.416;2022-12-29T02:49:50;4.07;;;1.00;;
19879;SDS011;10102;50.828;4.416;2022-12-29T02:52:25;8.48;;;1.20;;
19879;SDS011;10102;50.828;4.416;2022-12-29T02:54:55;1.40;;;0.85;;
19879;SDS011;10102;50.828;4.416;2022-12-29T02:59:47;2.15;;;1.10;;
19879;SDS011;10102;50.828;4.416;2022-12-29T03:02:26;8.18;;;1.05;;
19879;SDS011;10102;50.828;4.416;2022-12-29T03:13:10;35.25;;;1.90;;
19879;SDS011;10102;50.828;4.416;2022-12-29T03:18:44;3.75;;;1.25;;
19879;SDS011;10102;50.828;4.416;2022-12-29T03:24:08;13.38;;;1.50;;
19879;SDS011;10102;50.828;4.416;2022-12-29T03:26:34;3.80;;;0.90;;
19879;SDS011;10102;50.828;4.416;2022-12-29T03:29:02;3.97;;;1.10;;
19879;SDS011;10102;50.828;4.416;2022-12-29T03:31:28;8.38;;;1.10;;
19879;SDS011;10102;50.828;4.416;2022-12-29T03:33:55;7.72;;;1.08;;
19879;SDS011;10102;50.828;4.416;2022-12-29T03:36:30;4.95;;;1.33;;
19879;SDS011;10102;50.828;4.416;2022-12-29T03:39:06;2.33;;;1.10;;
19879;SDS011;10102;50.828;4.416;2022-12-29T03:41:36;2.65;;;1.58;;
19879;SDS011;10102;50.828;4.416;2022-12-29T03:44:08;8.50;;;1.55;;
19879;SDS011;10102;50.828;4.416;2022-12-29T03:46:34;5.45;;;1.35;;
19879;SDS011;10102;50.828;4.416;2022-12-29T03:49:00;6.53;;;1.50;;
19879;SDS011;10102;50.828;4.416;2022-12-29T03:51:26;7.22;;;1.67;;
19879;SDS011;10102;50.828;4.416;2022-12-29T03:53:51;6.68;;;1.60;;
19879;SDS011;10102;50.828;4.416;2022-12-29T03:56:17;8.60;;;1.35;;
19879;SDS011;10102;50.828;4.416;2022-12-29T03:58:43;6.43;;;1.60;;
19879;SDS011;10102;50.828;4.416;2022-12-29T04:01:08;16.38;;;2.17;;
19879;SDS011;10102;50.828;4.416;2022-12-29T04:03:34;7.85;;;1.95;;
19879;SDS011;10102;50.828;4.416;2022-12-29T04:06:00;3.85;;;1.35;;
19879;SDS011;10102;50.828;4.416;2022-12-29T04:08:25;8.52;;;1.77;;
19879;SDS011;10102;50.828;4.416;2022-12-29T04:10:51;12.45;;;1.70;;
19879;SDS011;10102;50.828;4.416;2022-12-29T04:13:16;4.78;;;1.40;;
19879;SDS011;10102;50.828;4.416;2022-12-29T04:15:43;9.55;;;1.73;;
19879;SDS011;10102;50.828;4.416;2022-12-29T04:18:10;5.28;;;1.60;;
19879;SDS011;10102;50.828;4.416;2022-12-29T04:20:36;8.35;;;1.70;;
19879;SDS011;10102;50.828;4.416;2022-12-29T04:23:20;8.05;;;1.45;;
19879;SDS011;10102;50.828;4.416;2022-12-29T04:25:46;11.77;;;1.85;;
19879;SDS011;10102;50.828;4.416;2022-12-29T04:28:15;6.97;;;1.52;;
19879;SDS011;10102;50.828;4.416;2022-12-29T04:30:42;9.43;;;1.55;;
19879;SDS011;10102;50.828;4.416;2022-12-29T04:33:08;12.18;;;2.03;;
19879;SDS011;10102;50.828;4.416;2022-12-29T04:35:34;5.53;;;2.00;;
19879;SDS011;10102;50.828;4.416;2022-12-29T04:38:00;9.02;;;2.08;;
19879;SDS011;10102;50.828;4.416;2022-12-29T04:40:26;10.25;;;1.88;;
19879;SDS011;10102;50.828;4.416;2022-12-29T04:42:51;5.47;;;1.95;;
19879;SDS011;10102;50.828;4.416;2022-12-29T04:45:17;8.18;;;2.05;;
19879;SDS011;10102;50.828;4.416;2022-12-29T04:47:42;5.88;;;1.85;;
19879;SDS011;10102;50.828;4.416;2022-12-29T04:50:08;9.45;;;1.55;;
19879;SDS011;10102;50.828;4.416;2022-12-29T04:52:34;9.52;;;2.03;;
19879;SDS011;10102;50.828;4.416;2022-12-29T04:55:00;9.70;;;1.60;;
19879;SDS011;10102;50.828;4.416;2022-12-29T04:57:26;13.07;;;1.80;;
19879;SDS011;10102;50.828;4.416;2022-12-29T04:59:52;10.15;;;1.65;;
19879;SDS011;10102;50.828;4.416;2022-12-29T05:02:17;8.65;;;2.15;;
19879;SDS011;10102;50.828;4.416;2022-12-29T05:04:43;11.43;;;2.20;;
19879;SDS011;10102;50.828;4.416;2022-12-29T05:07:09;19.38;;;2.55;;
19879;SDS011;10102;50.828;4.416;2022-12-29T05:09:35;8.55;;;1.50;;
19879;SDS011;10102;50.828;4.416;2022-12-29T05:12:00;10.73;;;1.63;;
19879;SDS011;10102;50.828;4.416;2022-12-29T05:14:26;13.25;;;2.00;;
19879;SDS011;10102;50.828;4.416;2022-12-29T05:16:52;10.13;;;1.85;;
19879;SDS011;10102;50.828;4.416;2022-12-29T05:19:17;7.70;;;1.52;;
19879;SDS011;10102;50.828;4.416;2022-12-29T05:21:43;11.55;;;1.60;;
19879;SDS011;10102;50.828;4.416;2022-12-29T05:24:09;5.80;;;1.95;;
19879;SDS011;10102;50.828;4.416;2022-12-29T05:26:34;7.32;;;2.05;;
19879;SDS011;10102;50.828;4.416;2022-12-29T05:29:00;11.00;;;2.05;;
19879;SDS011;10102;50.828;4.416;2022-12-29T05:31:26;8.65;;;2.42;;
19879;SDS011;10102;50.828;4.416;2022-12-29T05:33:52;14.38;;;2.03;;
19879;SDS011;10102;50.828;4.416;2022-12-29T05:36:18;5.15;;;1.65;;
19879;SDS011;10102;50.828;4.416;2022-12-29T05:38:44;7.25;;;1.65;;
19879;SDS011;10102;50.828;4.416;2022-12-29T05:41:10;8.98;;;1.65;;
19879;SDS011;10102;50.828;4.416;2022-12-29T05:43:36;6.30;;;1.67;;
19879;SDS011;10102;50.828;4.416;2022-12-29T05:46:02;8.02;;;1.83;;
19879;SDS011;10102;50.828;4.416;2022-12-29T05:48:28;14.15;;;1.95;;
19879;SDS011;10102;50.828;4.416;2022-12-29T05:50:54;11.13;;;1.67;;
19879;SDS011;10102;50.828;4.416;2022-12-29T05:53:19;7.72;;;2.08;;
19879;SDS011;10102;50.828;4.416;2022-12-29T05:55:48;12.38;;;1.98;;
19879;SDS011;10102;50.828;4.416;2022-12-29T05:58:15;5.30;;;1.60;;
19879;SDS011;10102;50.828;4.416;2022-12-29T06:00:41;15.63;;;2.20;;
19879;SDS011;10102;50.828;4.416;2022-12-29T06:03:07;8.45;;;2.03;;
19879;SDS011;10102;50.828;4.416;2022-12-29T06:05:33;8.18;;;1.92;;
19879;SDS011;10102;50.828;4.416;2022-12-29T06:07:58;7.78;;;1.35;;
19879;SDS011;10102;50.828;4.416;2022-12-29T06:10:24;10.10;;;1.98;;
19879;SDS011;10102;50.828;4.416;2022-12-29T06:12:50;8.30;;;1.80;;
19879;SDS011;10102;50.828;4.416;2022-12-29T06:15:16;12.18;;;1.70;;
19879;SDS011;10102;50.828;4.416;2022-12-29T06:17:42;1.83;;;1.13;;
19879;SDS011;10102;50.828;4.416;2022-12-29T06:20:08;7.03;;;1.77;;
19879;SDS011;10102;50.828;4.416;2022-12-29T06:22:35;9.15;;;1.77;;
19879;SDS011;10102;50.828;4.416;2022-12-29T06:25:01;13.20;;;2.10;;
19879;SDS011;10102;50.828;4.416;2022-12-29T06:27:27;9.60;;;1.80;;
19879;SDS011;10102;50.828;4.416;2022-12-29T06:29:52;12.93;;;2.50;;
19879;SDS011;10102;50.828;4.416;2022-12-29T06:32:18;3.45;;;1.05;;
19879;SDS011;10102;50.828;4.416;2022-12-29T06:34:44;6.38;;;1.75;;
19879;SDS011;10102;50.828;4.416;2022-12-29T06:37:10;8.38;;;1.33;;
19879;SDS011;10102;50.828;4.416;2022-12-29T06:39:36;7.05;;;1.98;;
19879;SDS011;10102;50.828;4.416;2022-12-29T06:42:02;9.73;;;1.80;;
19879;SDS011;10102;50.828;4.416;2022-12-29T06:44:28;8.55;;;1.90;;
19879;SDS011;10102;50.828;4.416;2022-12-29T06:46:53;5.03;;;1.90;;
19879;SDS011;10102;50.828;4.416;2022-12-29T06:49:19;10.70;;;2.00;;
19879;SDS011;10102;50.828;4.416;2022-12-29T06:51:44;9.43;;;1.50;;
19879;SDS011;10102;50.828;4.416;2022-12-29T06:54:10;8.45;;;1.67;;
19879;SDS011;10102;50.828;4.416;2022-12-29T06:56:36;11.25;;;1.50;;
19879;SDS011;10102;50.828;4.416;2022-12-29T06:59:02;7.32;;;1.30;;
19879;SDS011;10102;50.828;4.416;2022-12-29T07:01:28;10.40;;;1.98;;
19879;SDS011;10102;50.828;4.416;2022-12-29T07:03:54;6.85;;;1.52;;
19879;SDS011;10102;50.828;4.416;2022-12-29T07:06:20;12.10;;;1.83;;
19879;SDS011;10102;50.828;4.416;2022-12-29T07:08:46;8.63;;;1.70;;
19879;SDS011;10102;50.828;4.416;2022-12-29T07:11:11;13.27;;;1.65;;
19879;SDS011;10102;50.828;4.416;2022-12-29T07:13:37;7.47;;;1.70;;
19879;SDS011;10102;50.828;4.416;2022-12-29T07:16:09;9.02;;;1.63;;
19879;SDS011;10102;50.828;4.416;2022-12-29T07:18:35;8.02;;;1.67;;
19879;SDS011;10102;50.828;4.416;2022-12-29T07:21:01;8.40;;;1.58;;
19879;SDS011;10102;50.828;4.416;2022-12-29T07:23:28;11.20;;;2.03;;
19879;SDS011;10102;50.828;4.416;2022-12-29T07:26:00;10.23;;;1.55;;
19879;SDS011;10102;50.828;4.416;2022-12-29T07:28:30;9.50;;;1.98;;
19879;SDS011;10102;50.828;4.416;2022-12-29T07:30:57;7.35;;;1.55;;
19879;SDS011;10102;50.828;4.416;2022-12-29T07:33:23;5.05;;;1.60;;
19879;SDS011;10102;50.828;4.416;2022-12-29T07:35:49;11.13;;;2.03;;
19879;SDS011;10102;50.828;4.416;2022-12-29T07:38:15;5.68;;;1.55;;
19879;SDS011;10102;50.828;4.416;2022-12-29T07:40:42;11.57;;;2.15;;
19879;SDS011;10102;50.828;4.416;2022-12-29T07:43:08;6.45;;;2.70;;
19879;SDS011;10102;50.828;4.416;2022-12-29T07:45:33;7.28;;;2.05;;
19879;SDS011;10102;50.828;4.416;2022-12-29T07:47:59;10.60;;;2.10;;
19879;SDS011;10102;50.828;4.416;2022-12-29T07:50:25;10.48;;;3.35;;
19879;SDS011;10102;50.828;4.416;2022-12-29T07:52:50;11.07;;;2.03;;
19879;SDS011;10102;50.828;4.416;2022-12-29T07:55:16;9.82;;;2.60;;
19879;SDS011;10102;50.828;4.416;2022-12-29T07:57:42;7.55;;;1.60;;
19879;SDS011;10102;50.828;4.416;2022-12-29T08:00:08;11.82;;;2.10;;
19879;SDS011;10102;50.828;4.416;2022-12-29T08:02:35;11.45;;;2.08;;
19879;SDS011;10102;50.828;4.416;2022-12-29T08:05:01;13.57;;;2.10;;
19879;SDS011;10102;50.828;4.416;2022-12-29T08:07:26;8.77;;;2.10;;
19879;SDS011;10102;50.828;4.416;2022-12-29T08:09:52;8.15;;;1.73;;
19879;SDS011;10102;50.828;4.416;2022-12-29T08:12:18;6.05;;;1.65;;
19879;SDS011;10102;50.828;4.416;2022-12-29T08:14:44;11.63;;;1.90;;
19879;SDS011;10102;50.828;4.416;2022-12-29T08:17:09;11.73;;;2.58;;
19879;SDS011;10102;50.828;4.416;2022-12-29T08:19:35;12.10;;;2.00;;
19879;SDS011;10102;50.828;4.416;2022-12-29T08:22:01;10.23;;;2.35;;
19879;SDS011;10102;50.828;4.416;2022-12-29T08:24:30;5.88;;;1.88;;
19879;SDS011;10102;50.828;4.416;2022-12-29T08:26:56;8.63;;;2.50;;
19879;SDS011;10102;50.828;4.416;2022-12-29T08:29:21;9.43;;;1.83;;
19879;SDS011;10102;50.828;4.416;2022-12-29T08:31:47;7.63;;;1.85;;
19879;SDS011;10102;50.828;4.416;2022-12-29T08:34:13;5.93;;;1.90;;
19879;SDS011;10102;50.828;4.416;2022-12-29T08:36:38;10.93;;;1.80;;
19879;SDS011;10102;50.828;4.416;2022-12-29T08:39:05;9.57;;;2.40;;
19879;SDS011;10102;50.828;4.416;2022-12-29T08:41:31;9.23;;;2.08;;
19879;SDS011;10102;50.828;4.416;2022-12-29T08:43:57;6.88;;;1.83;;
19879;SDS011;10102;50.828;4.416;2022-12-29T08:46:22;14.02;;;2.00;;
19879;SDS011;10102;50.828;4.416;2022-12-29T08:48:48;6.63;;;2.00;;
19879;SDS011;10102;50.828;4.416;2022-12-29T08:51:14;12.30;;;2.42;;
19879;SDS011;10102;50.828;4.416;2022-12-29T08:53:40;11.95;;;2.33;;
19879;SDS011;10102;50.828;4.416;2022-12-29T08:56:06;10.60;;;2.85;;
19879;SDS011;10102;50.828;4.416;2022-12-29T08:58:31;17.60;;;3.08;;
19879;SDS011;10102;50.828;4.416;2022-12-29T09:00:57;11.98;;;2.33;;
19879;SDS011;10102;50.828;4.416;2022-12-29T09:03:24;4.20;;;1.77;;
19879;SDS011;10102;50.828;4.416;2022-12-29T09:05:50;18.80;;;2.13;;
19879;SDS011;10102;50.828;4.416;2022-12-29T09:08:17;12.25;;;1.65;;
19879;SDS011;10102;50.828;4.416;2022-12-29T09:10:43;14.07;;;2.22;;
19879;SDS011;10102;50.828;4.416;2022-12-29T09:13:09;10.63;;;2.00;;
19879;SDS011;10102;50.828;4.416;2022-12-29T09:15:36;9.68;;;2.45;;
19879;SDS011;10102;50.828;4.416;2022-12-29T09:18:02;12.02;;;2.53;;
19879;SDS011;10102;50.828;4.416;2022-12-29T09:20:27;10.05;;;2.55;;
19879;SDS011;10102;50.828;4.416;2022-12-29T09:22:53;10.02;;;2.38;;
19879;SDS011;10102;50.828;4.416;2022-12-29T09:25:19;12.00;;;2.28;;
19879;SDS011;10102;50.828;4.416;2022-12-29T09:27:45;9.15;;;2.35;;
19879;SDS011;10102;50.828;4.416;2022-12-29T09:30:12;10.32;;;1.58;;
19879;SDS011;10102;50.828;4.416;2022-12-29T09:32:39;14.20;;;2.20;;
19879;SDS011;10102;50.828;4.416;2022-12-29T09:35:05;7.80;;;2.08;;
19879;SDS011;10102;50.828;4.416;2022-12-29T09:37:31;11.27;;;2.28;;
19879;SDS011;10102;50.828;4.416;2022-12-29T09:39:57;17.17;;;3.10;;
19879;SDS011;10102;50.828;4.416;2022-12-29T09:42:42;13.50;;;2.15;;
19879;SDS011;10102;50.828;4.416;2022-12-29T09:45:28;14.95;;;3.08;;
19879;SDS011;10102;50.828;4.416;2022-12-29T09:47:59;15.98;;;2.22;;
19879;SDS011;10102;50.828;4.416;2022-12-29T09:52:55;16.77;;;2.70;;
19879;SDS011;10102;50.828;4.416;2022-12-29T09:55:26;5.28;;;2.00;;
19879;SDS011;10102;50.828;4.416;2022-12-29T09:58:17;15.35;;;2.20;;
19879;SDS011;10102;50.828;4.416;2022-12-29T10:03:50;15.68;;;2.33;;
19879;SDS011;10102;50.828;4.416;2022-12-29T10:06:32;10.32;;;2.15;;
19879;SDS011;10102;50.828;4.416;2022-12-29T10:09:16;8.70;;;2.45;;
19879;SDS011;10102;50.828;4.416;2022-12-29T10:25:47;8.52;;;2.33;;
19879;SDS011;10102;50.828;4.416;2022-12-29T10:28:33;14.68;;;3.08;;
19879;SDS011;10102;50.828;4.416;2022-12-29T10:30:59;9.57;;;2.03;;
19879;SDS011;10102;50.828;4.416;2022-12-29T10:33:34;14.48;;;2.55;;
19879;SDS011;10102;50.828;4.416;2022-12-29T10:36:38;15.15;;;2.55;;
19879;SDS011;10102;50.828;4.416;2022-12-29T10:39:14;11.77;;;2.40;;
19879;SDS011;10102;50.828;4.416;2022-12-29T10:44:30;15.52;;;2.63;;
19879;SDS011;10102;50.828;4.416;2022-12-29T10:47:02;10.90;;;2.53;;
19879;SDS011;10102;50.828;4.416;2022-12-29T10:49:31;13.27;;;1.90;;
19879;SDS011;10102;50.828;4.416;2022-12-29T10:52:02;12.80;;;2.25;;
19879;SDS011;10102;50.828;4.416;2022-12-29T10:54:30;12.57;;;2.38;;
19879;SDS011;10102;50.828;4.416;2022-12-29T10:57:04;9.07;;;2.13;;
19879;SDS011;10102;50.828;4.416;2022-12-29T10:59:36;11.63;;;2.20;;
19879;SDS011;10102;50.828;4.416;2022-12-29T11:07:11;11.27;;;2.45;;
19879;SDS011;10102;50.828;4.416;2022-12-29T11:09:40;12.80;;;2.35;;
19879;SDS011;10102;50.828;4.416;2022-12-29T11:12:22;8.10;;;1.95;;
19879;SDS011;10102;50.828;4.416;2022-12-29T11:17:47;11.25;;;1.85;;
19879;SDS011;10102;50.828;4.416;2022-12-29T11:20:27;13.10;;;3.17;;
19879;SDS011;10102;50.828;4.416;2022-12-29T11:22:56;12.18;;;2.25;;
19879;SDS011;10102;50.828;4.416;2022-12-29T11:25:21;9.10;;;2.25;;
19879;SDS011;10102;50.828;4.416;2022-12-29T11:30:42;11.60;;;2.90;;
19879;SDS011;10102;50.828;4.416;2022-12-29T11:33:08;7.00;;;2.20;;
19879;SDS011;10102;50.828;4.416;2022-12-29T11:35:41;12.48;;;2.42;;
19879;SDS011;10102;50.828;4.416;2022-12-29T11:38:21;8.32;;;2.00;;
19879;SDS011;10102;50.828;4.416;2022-12-29T11:40:50;9.43;;;2.22;;
19879;SDS011;10102;50.828;4.416;2022-12-29T11:45:59;13.85;;;2.33;;
19879;SDS011;10102;50.828;4.416;2022-12-29T11:48:29;14.18;;;1.90;;
19879;SDS011;10102;50.828;4.416;2022-12-29T11:50:58;11.23;;;2.53;;
19879;SDS011;10102;50.828;4.416;2022-12-29T11:53:26;11.23;;;2.63;;
19879;SDS011;10102;50.828;4.416;2022-12-29T11:56:10;4.55;;;1.83;;
19879;SDS011;10102;50.828;4.416;2022-12-29T11:58:40;6.13;;;2.00;;
19879;SDS011;10102;50.828;4.416;2022-12-29T12:03:32;10.88;;;2.83;;
19879;SDS011;10102;50.828;4.416;2022-12-29T12:06:02;12.75;;;2.55;;
19879;SDS011;10102;50.828;4.416;2022-12-29T12:11:19;9.68;;;2.25;;
19879;SDS011;10102;50.828;4.416;2022-12-29T12:16:43;16.20;;;3.28;;
19879;SDS011;10102;50.828;4.416;2022-12-29T12:21:54;11.93;;;2.10;;
19879;SDS011;10102;50.828;4.416;2022-12-29T12:35:26;14.60;;;2.58;;
19879;SDS011;10102;50.828;4.416;2022-12-29T12:46:17;11.13;;;2.50;;
19879;SDS011;10102;50.828;4.416;2022-12-29T13:01:55;11.20;;;2.20;;
19879;SDS011;10102;50.828;4.416;2022-12-29T13:13:12;11.02;;;1.92;;
19879;SDS011;10102;50.828;4.416;2022-12-29T13:30:03;10.63;;;2.30;;
19879;SDS011;10102;50.828;4.416;2022-12-29T13:35:44;7.55;;;2.15;;
19879;SDS011;10102;50.828;4.416;2022-12-29T13:41:09;12.27;;;2.40;;
19879;SDS011;10102;50.828;4.416;2022-12-29T13:43:43;12.70;;;2.00;;
19879;SDS011;10102;50.828;4.416;2022-12-29T13:46:19;15.23;;;2.50;;
19879;SDS011;10102;50.828;4.416;2022-12-29T13:49:03;10.65;;;4.28;;
19879;SDS011;10102;50.828;4.416;2022-12-29T13:51:33;12.93;;;3.05;;
19879;SDS011;10102;50.828;4.416;2022-12-29T13:54:18;8.60;;;2.20;;
19879;SDS011;10102;50.828;4.416;2022-12-29T13:57:12;8.10;;;2.53;;
19879;SDS011;10102;50.828;4.416;2022-12-29T14:07:43;11.57;;;3.08;;
19879;SDS011;10102;50.828;4.416;2022-12-29T14:10:29;12.35;;;2.60;;
19879;SDS011;10102;50.828;4.416;2022-12-29T14:15:51;11.75;;;3.10;;
19879;SDS011;10102;50.828;4.416;2022-12-29T14:18:25;13.23;;;2.72;;
19879;SDS011;10102;50.828;4.416;2022-12-29T14:28:31;10.18;;;2.60;;
19879;SDS011;10102;50.828;4.416;2022-12-29T14:31:44;10.00;;;2.42;;
19879;SDS011;10102;50.828;4.416;2022-12-29T14:36:52;6.38;;;2.05;;
19879;SDS011;10102;50.828;4.416;2022-12-29T14:39:29;20.77;;;2.75;;
19879;SDS011;10102;50.828;4.416;2022-12-29T14:50:42;16.80;;;3.15;;
19879;SDS011;10102;50.828;4.416;2022-12-29T14:56:08;17.98;;;3.03;;
19879;SDS011;10102;50.828;4.416;2022-12-29T15:01:38;12.25;;;3.03;;
19879;SDS011;10102;50.828;4.416;2022-12-29T15:04:14;12.13;;;2.75;;
19879;SDS011;10102;50.828;4.416;2022-12-29T15:06:44;6.45;;;1.90;;
19879;SDS011;10102;50.828;4.416;2022-12-29T15:12:05;6.53;;;2.22;;
19879;SDS011;10102;50.828;4.416;2022-12-29T15:14:56;6.97;;;1.77;;
19879;SDS011;10102;50.828;4.416;2022-12-29T15:19:57;6.40;;;2.03;;
19879;SDS011;10102;50.828;4.416;2022-12-29T15:22:25;6.82;;;2.15;;
19879;SDS011;10102;50.828;4.416;2022-12-29T15:24:52;10.18;;;2.50;;
19879;SDS011;10102;50.828;4.416;2022-12-29T15:27:23;12.85;;;2.47;;
19879;SDS011;10102;50.828;4.416;2022-12-29T15:30:00;11.30;;;2.90;;
19879;SDS011;10102;50.828;4.416;2022-12-29T15:32:29;7.40;;;2.10;;
19879;SDS011;10102;50.828;4.416;2022-12-29T15:35:13;14.25;;;2.58;;
19879;SDS011;10102;50.828;4.416;2022-12-29T15:37:58;8.38;;;2.28;;
19879;SDS011;10102;50.828;4.416;2022-12-29T15:40:28;6.30;;;2.10;;
19879;SDS011;10102;50.828;4.416;2022-12-29T15:45:50;12.95;;;2.65;;
19879;SDS011;10102;50.828;4.416;2022-12-29T15:48:18;10.80;;;2.33;;
19879;SDS011;10102;50.828;4.416;2022-12-29T15:50:46;7.75;;;2.53;;
19879;SDS011;10102;50.828;4.416;2022-12-29T15:53:16;15.48;;;2.70;;
19879;SDS011;10102;50.828;4.416;2022-12-29T15:55:49;14.15;;;2.80;;
19879;SDS011;10102;50.828;4.416;2022-12-29T15:58:18;9.82;;;2.75;;
19879;SDS011;10102;50.828;4.416;2022-12-29T16:00:51;7.38;;;2.70;;
19879;SDS011;10102;50.828;4.416;2022-12-29T16:03:18;11.27;;;3.50;;
19879;SDS011;10102;50.828;4.416;2022-12-29T16:05:49;7.57;;;3.15;;
19879;SDS011;10102;50.828;4.416;2022-12-29T16:08:33;15.35;;;3.50;;
19879;SDS011;10102;50.828;4.416;2022-12-29T16:11:02;15.82;;;3.60;;
19879;SDS011;10102;50.828;4.416;2022-12-29T16:13:39;9.52;;;3.17;;
19879;SDS011;10102;50.828;4.416;2022-12-29T16:16:13;12.55;;;3.58;;
19879;SDS011;10102;50.828;4.416;2022-12-29T16:18:43;13.70;;;4.05;;
19879;SDS011;10102;50.828;4.416;2022-12-29T16:21:23;19.35;;;3.33;;
19879;SDS011;10102;50.828;4.416;2022-12-29T16:23:59;17.23;;;3.70;;
19879;SDS011;10102;50.828;4.416;2022-12-29T16:26:26;23.88;;;7.25;;
19879;SDS011;10102;50.828;4.416;2022-12-29T16:28:56;18.98;;;5.40;;
19879;SDS011;10102;50.828;4.416;2022-12-29T16:31:25;14.00;;;3.60;;
19879;SDS011;10102;50.828;4.416;2022-12-29T16:33:56;15.68;;;3.65;;
19879;SDS011;10102;50.828;4.416;2022-12-29T16:36:32;14.63;;;4.63;;
19879;SDS011;10102;50.828;4.416;2022-12-29T16:50:31;22.85;;;4.13;;
19879;SDS011;10102;50.828;4.416;2022-12-29T16:53:00;22.42;;;3.78;;
19879;SDS011;10102;50.828;4.416;2022-12-29T16:55:27;26.30;;;4.45;;
19879;SDS011;10102;50.828;4.416;2022-12-29T16:57:53;18.80;;;3.88;;
19879;SDS011;10102;50.828;4.416;2022-12-29T17:00:22;22.88;;;3.60;;
19879;SDS011;10102;50.828;4.416;2022-12-29T17:02:50;12.57;;;3.47;;
19879;SDS011;10102;50.828;4.416;2022-12-29T17:05:18;14.73;;;3.78;;
19879;SDS011;10102;50.828;4.416;2022-12-29T17:07:44;14.77;;;3.50;;
19879;SDS011;10102;50.828;4.416;2022-12-29T17:10:11;9.60;;;3.17;;
19879;SDS011;10102;50.828;4.416;2022-12-29T17:12:38;20.48;;;3.72;;
19879;SDS011;10102;50.828;4.416;2022-12-29T17:17:44;16.35;;;3.20;;
19879;SDS011;10102;50.828;4.416;2022-12-29T17:22:40;23.77;;;3.58;;
19879;SDS011;10102;50.828;4.416;2022-12-29T17:25:06;13.65;;;3.60;;
19879;SDS011;10102;50.828;4.416;2022-12-29T17:27:37;20.90;;;4.20;;
19879;SDS011;10102;50.828;4.416;2022-12-29T17:30:22;13.10;;;3.42;;
19879;SDS011;10102;50.828;4.416;2022-12-29T17:32:50;10.23;;;3.25;;
19879;SDS011;10102;50.828;4.416;2022-12-29T17:35:18;14.95;;;3.35;;
19879;SDS011;10102;50.828;4.416;2022-12-29T17:37:45;8.68;;;2.75;;
19879;SDS011;10102;50.828;4.416;2022-12-29T17:40:22;13.80;;;2.80;;
19879;SDS011;10102;50.828;4.416;2022-12-29T17:42:54;8.38;;;3.35;;
19879;SDS011;10102;50.828;4.416;2022-12-29T17:45:25;16.15;;;3.35;;
19879;SDS011;10102;50.828;4.416;2022-12-29T17:47:51;35.08;;;3.47;;
19879;SDS011;10102;50.828;4.416;2022-12-29T17:50:18;15.50;;;3.78;;
19879;SDS011;10102;50.828;4.416;2022-12-29T17:53:09;13.00;;;2.75;;
19879;SDS011;10102;50.828;4.416;2022-12-29T17:55:37;12.55;;;2.55;;
19879;SDS011;10102;50.828;4.416;2022-12-29T18:00:42;13.55;;;2.70;;
19879;SDS011;10102;50.828;4.416;2022-12-29T18:03:12;7.70;;;2.40;;
19879;SDS011;10102;50.828;4.416;2022-12-29T18:05:40;9.77;;;2.55;;
19879;SDS011;10102;50.828;4.416;2022-12-29T18:08:08;20.30;;;4.18;;
19879;SDS011;10102;50.828;4.416;2022-12-29T18:10:35;13.40;;;2.38;;
19879;SDS011;10102;50.828;4.416;2022-12-29T18:13:00;15.73;;;2.78;;
19879;SDS011;10102;50.828;4.416;2022-12-29T18:18:10;8.55;;;2.67;;
19879;SDS011;10102;50.828;4.416;2022-12-29T18:20:40;15.07;;;2.78;;
19879;SDS011;10102;50.828;4.416;2022-12-29T18:26:03;11.55;;;3.20;;
19879;SDS011;10102;50.828;4.416;2022-12-29T18:28:31;8.50;;;2.55;;
19879;SDS011;10102;50.828;4.416;2022-12-29T18:30:58;18.13;;;3.65;;
19879;SDS011;10102;50.828;4.416;2022-12-29T18:33:26;11.55;;;3.35;;
19879;SDS011;10102;50.828;4.416;2022-12-29T18:35:57;12.98;;;3.75;;
19879;SDS011;10102;50.828;4.416;2022-12-29T18:38:27;13.63;;;3.67;;
19879;SDS011;10102;50.828;4.416;2022-12-29T18:40:53;26.00;;;3.40;;
19879;SDS011;10102;50.828;4.416;2022-12-29T18:43:20;15.15;;;3.35;;